Hove, Belgium
Current Conditions -  °F | °C
As of 8:50 PM on Sunday 23 Nov 2014 (Local Time) from EBAW Reporting Station
Broken Clouds Broken Clouds  
Wind Chill: 57°   Ceiling: 1600
Heat Index: 57°   Visibility: 6mi
Dew Point: 52°   Wind: 7mph
Humidity: 82%   Direction: 240°WSW
Pressure: 29.94"   Gusts: NA
Location:  51.15°N, 4.47°E
Report Text: EBAW 231950Z 24006KT 210V270 9999 BKN016 14/11 Q1014 BECMG BKN012
Loading
Personal Weather Stations






























Interactive Weather Map New forecast layout! Learn more

10-Day Weather Forecast

Advertisements
Track Severe Weather on mobile